sensor_id;sensor_type;location;lat;lon;timestamp;pressure;altitude;pressure_sealevel;temperature
43802;BMP280;29429;51.074;13.764;2023-10-08T00:01:10;99981.72;;;20.13
43802;BMP280;29429;51.074;13.764;2023-10-08T00:03:46;99978.47;;;20.11
43802;BMP280;29429;51.074;13.764;2023-10-08T00:06:20;99977.63;;;20.11
43802;BMP280;29429;51.074;13.764;2023-10-08T00:08:49;99967.06;;;20.09
43802;BMP280;29429;51.074;13.764;2023-10-08T00:11:17;99977.09;;;20.09
43802;BMP280;29429;51.074;13.764;2023-10-08T00:13:45;99970.34;;;20.11
43802;BMP280;29429;51.074;13.764;2023-10-08T00:16:15;99982.22;;;20.10
43802;BMP280;29429;51.074;13.764;2023-10-08T00:18:45;99973.56;;;20.08
43802;BMP280;29429;51.074;13.764;2023-10-08T00:21:21;99973.56;;;20.08
43802;BMP280;29429;51.074;13.764;2023-10-08T00:24:00;99975.72;;;20.06
43802;BMP280;29429;51.074;13.764;2023-10-08T00:26:30;99975.72;;;20.06
43802;BMP280;29429;51.074;13.764;2023-10-08T00:29:05;99980.84;;;20.02
43802;BMP280;29429;51.074;13.764;2023-10-08T00:31:49;99985.34;;;19.92
43802;BMP280;29429;51.074;13.764;2023-10-08T00:34:17;99987.72;;;19.83
43802;BMP280;29429;51.074;13.764;2023-10-08T00:36:48;99967.34;;;19.71
43802;BMP280;29429;51.074;13.764;2023-10-08T00:39:17;99982.69;;;19.60
43802;BMP280;29429;51.074;13.764;2023-10-08T00:41:51;99968.19;;;19.44
43802;BMP280;29429;51.074;13.764;2023-10-08T00:44:27;99994.66;;;19.37
43802;BMP280;29429;51.074;13.764;2023-10-08T00:46:59;99982.88;;;19.27
43802;BMP280;29429;51.074;13.764;2023-10-08T00:49:29;99992.56;;;19.23
43802;BMP280;29429;51.074;13.764;2023-10-08T00:52:09;99980.13;;;19.22
43802;BMP280;29429;51.074;13.764;2023-10-08T00:54:39;99986.25;;;19.12
43802;BMP280;29429;51.074;13.764;2023-10-08T00:57:22;100001.25;;;18.98
43802;BMP280;29429;51.074;13.764;2023-10-08T00:59:51;99990.28;;;18.88
43802;BMP280;29429;51.074;13.764;2023-10-08T01:02:25;99990.78;;;18.85
43802;BMP280;29429;51.074;13.764;2023-10-08T01:04:58;100003.75;;;18.83
43802;BMP280;29429;51.074;13.764;2023-10-08T01:07:28;100012.63;;;18.78
43802;BMP280;29429;51.074;13.764;2023-10-08T01:09:57;100013.88;;;18.71
43802;BMP280;29429;51.074;13.764;2023-10-08T01:12:28;100009.41;;;18.60
43802;BMP280;29429;51.074;13.764;2023-10-08T01:15:01;100010.91;;;18.51
43802;BMP280;29429;51.074;13.764;2023-10-08T01:17:43;100021.06;;;18.44
43802;BMP280;29429;51.074;13.764;2023-10-08T01:20:29;100014.94;;;18.32
43802;BMP280;29429;51.074;13.764;2023-10-08T01:23:18;100030.75;;;18.23
43802;BMP280;29429;51.074;13.764;2023-10-08T01:25:49;100025.34;;;18.06
43802;BMP280;29429;51.074;13.764;2023-10-08T01:28:41;100022.03;;;17.99
43802;BMP280;29429;51.074;13.764;2023-10-08T01:31:11;100023.97;;;17.87
43802;BMP280;29429;51.074;13.764;2023-10-08T01:33:40;100024.38;;;17.79
43802;BMP280;29429;51.074;13.764;2023-10-08T01:36:18;100029.13;;;17.72
43802;BMP280;29429;51.074;13.764;2023-10-08T01:38:45;100046.78;;;17.63
43802;BMP280;29429;51.074;13.764;2023-10-08T01:41:16;100058.53;;;17.57
43802;BMP280;29429;51.074;13.764;2023-10-08T01:43:47;100057.84;;;17.50
43802;BMP280;29429;51.074;13.764;2023-10-08T01:46:15;100059.75;;;17.38
43802;BMP280;29429;51.074;13.764;2023-10-08T01:48:43;100083.75;;;17.23
43802;BMP280;29429;51.074;13.764;2023-10-08T01:51:12;100079.72;;;16.97
43802;BMP280;29429;51.074;13.764;2023-10-08T01:53:53;100083.63;;;16.66
43802;BMP280;29429;51.074;13.764;2023-10-08T01:56:22;100082.59;;;16.56
43802;BMP280;29429;51.074;13.764;2023-10-08T01:58:49;100087.81;;;16.39
43802;BMP280;29429;51.074;13.764;2023-10-08T02:01:20;100085.16;;;16.27
43802;BMP280;29429;51.074;13.764;2023-10-08T02:03:48;100089.47;;;16.17
43802;BMP280;29429;51.074;13.764;2023-10-08T02:06:16;100104.53;;;16.06
43802;BMP280;29429;51.074;13.764;2023-10-08T02:08:43;100124.94;;;15.72
43802;BMP280;29429;51.074;13.764;2023-10-08T02:11:11;100122.28;;;15.54
43802;BMP280;29429;51.074;13.764;2023-10-08T02:13:38;100131.09;;;15.43
43802;BMP280;29429;51.074;13.764;2023-10-08T02:16:05;100155.47;;;15.30
43802;BMP280;29429;51.074;13.764;2023-10-08T02:18:34;100154.09;;;15.21
43802;BMP280;29429;51.074;13.764;2023-10-08T02:21:02;100129.53;;;15.17
43802;BMP280;29429;51.074;13.764;2023-10-08T02:23:30;100134.88;;;15.06
43802;BMP280;29429;51.074;13.764;2023-10-08T02:25:58;100146.06;;;15.03
43802;BMP280;29429;51.074;13.764;2023-10-08T02:28:26;100153.56;;;14.94
43802;BMP280;29429;51.074;13.764;2023-10-08T02:30:54;100160.91;;;14.87
43802;BMP280;29429;51.074;13.764;2023-10-08T02:33:21;100165.72;;;14.79
43802;BMP280;29429;51.074;13.764;2023-10-08T02:35:49;100184.13;;;14.75
43802;BMP280;29429;51.074;13.764;2023-10-08T02:38:19;100198.19;;;14.77
43802;BMP280;29429;51.074;13.764;2023-10-08T02:40:49;100199.97;;;14.83
43802;BMP280;29429;51.074;13.764;2023-10-08T02:43:17;100219.00;;;14.82
43802;BMP280;29429;51.074;13.764;2023-10-08T02:45:45;100236.72;;;14.83
43802;BMP280;29429;51.074;13.764;2023-10-08T02:48:18;100251.06;;;14.77
43802;BMP280;29429;51.074;13.764;2023-10-08T02:50:48;100238.28;;;14.72
43802;BMP280;29429;51.074;13.764;2023-10-08T02:53:15;100249.94;;;14.59
43802;BMP280;29429;51.074;13.764;2023-10-08T02:55:48;100248.75;;;14.55
43802;BMP280;29429;51.074;13.764;2023-10-08T02:58:17;100260.69;;;14.59
43802;BMP280;29429;51.074;13.764;2023-10-08T03:00:48;100277.84;;;14.58
43802;BMP280;29429;51.074;13.764;2023-10-08T03:03:19;100262.13;;;14.62
43802;BMP280;29429;51.074;13.764;2023-10-08T03:05:49;100279.06;;;14.62
43802;BMP280;29429;51.074;13.764;2023-10-08T03:08:18;100274.97;;;14.53
43802;BMP280;29429;51.074;13.764;2023-10-08T03:10:51;100294.47;;;14.42
43802;BMP280;29429;51.074;13.764;2023-10-08T03:13:30;100299.28;;;14.34
43802;BMP280;29429;51.074;13.764;2023-10-08T03:15:58;100324.66;;;14.25
43802;BMP280;29429;51.074;13.764;2023-10-08T03:18:29;100325.78;;;14.11
43802;BMP280;29429;51.074;13.764;2023-10-08T03:21:10;100324.00;;;13.85
43802;BMP280;29429;51.074;13.764;2023-10-08T03:24:09;100342.22;;;13.70
43802;BMP280;29429;51.074;13.764;2023-10-08T03:26:45;100351.75;;;13.53
43802;BMP280;29429;51.074;13.764;2023-10-08T03:29:13;100364.53;;;13.37
43802;BMP280;29429;51.074;13.764;2023-10-08T03:31:44;100380.22;;;13.27
43802;BMP280;29429;51.074;13.764;2023-10-08T03:34:18;100391.34;;;13.24
43802;BMP280;29429;51.074;13.764;2023-10-08T03:36:47;100372.59;;;13.18
43802;BMP280;29429;51.074;13.764;2023-10-08T03:39:18;100385.50;;;12.88
43802;BMP280;29429;51.074;13.764;2023-10-08T03:41:49;100407.31;;;12.72
43802;BMP280;29429;51.074;13.764;2023-10-08T03:44:33;100423.09;;;12.54
43802;BMP280;29429;51.074;13.764;2023-10-08T03:47:05;100415.81;;;12.35
43802;BMP280;29429;51.074;13.764;2023-10-08T03:49:39;100411.69;;;12.26
43802;BMP280;29429;51.074;13.764;2023-10-08T03:52:13;100420.72;;;12.25
43802;BMP280;29429;51.074;13.764;2023-10-08T03:54:40;100419.44;;;12.20
43802;BMP280;29429;51.074;13.764;2023-10-08T03:57:16;100430.56;;;12.17
43802;BMP280;29429;51.074;13.764;2023-10-08T03:59:52;100438.25;;;11.99
43802;BMP280;29429;51.074;13.764;2023-10-08T04:02:26;100450.00;;;11.98
43802;BMP280;29429;51.074;13.764;2023-10-08T04:05:14;100449.56;;;11.95
43802;BMP280;29429;51.074;13.764;2023-10-08T04:07:49;100457.31;;;11.83
43802;BMP280;29429;51.074;13.764;2023-10-08T04:10:36;100453.75;;;11.76
43802;BMP280;29429;51.074;13.764;2023-10-08T04:13:10;100455.03;;;11.80
43802;BMP280;29429;51.074;13.764;2023-10-08T04:15:37;100447.19;;;11.79
43802;BMP280;29429;51.074;13.764;2023-10-08T04:18:12;100440.16;;;11.71
43802;BMP280;29429;51.074;13.764;2023-10-08T04:20:42;100441.19;;;11.70
43802;BMP280;29429;51.074;13.764;2023-10-08T04:23:27;100450.34;;;11.68
43802;BMP280;29429;51.074;13.764;2023-10-08T04:25:57;100467.22;;;11.68
43802;BMP280;29429;51.074;13.764;2023-10-08T04:28:24;100453.63;;;11.63
43802;BMP280;29429;51.074;13.764;2023-10-08T04:30:56;100466.34;;;11.61
43802;BMP280;29429;51.074;13.764;2023-10-08T04:33:28;100467.91;;;11.70
43802;BMP280;29429;51.074;13.764;2023-10-08T04:36:02;100468.16;;;11.75
43802;BMP280;29429;51.074;13.764;2023-10-08T04:38:29;100481.75;;;11.80
43802;BMP280;29429;51.074;13.764;2023-10-08T04:40:58;100473.06;;;11.78
43802;BMP280;29429;51.074;13.764;2023-10-08T04:43:29;100464.50;;;11.83
43802;BMP280;29429;51.074;13.764;2023-10-08T04:46:00;100483.38;;;11.81
43802;BMP280;29429;51.074;13.764;2023-10-08T04:48:33;100496.38;;;11.84
43802;BMP280;29429;51.074;13.764;2023-10-08T04:51:04;100493.53;;;11.86
43802;BMP280;29429;51.074;13.764;2023-10-08T04:53:33;100508.03;;;11.77
43802;BMP280;29429;51.074;13.764;2023-10-08T04:56:06;100534.50;;;11.72
43802;BMP280;29429;51.074;13.764;2023-10-08T04:58:41;100541.06;;;11.69
43802;BMP280;29429;51.074;13.764;2023-10-08T05:01:08;100545.00;;;11.73
43802;BMP280;29429;51.074;13.764;2023-10-08T05:03:54;100549.66;;;11.86
43802;BMP280;29429;51.074;13.764;2023-10-08T05:06:30;100542.28;;;11.94
43802;BMP280;29429;51.074;13.764;2023-10-08T05:09:04;100550.00;;;12.04
43802;BMP280;29429;51.074;13.764;2023-10-08T05:11:48;100559.09;;;12.09
43802;BMP280;29429;51.074;13.764;2023-10-08T05:14:24;100570.34;;;12.05
43802;BMP280;29429;51.074;13.764;2023-10-08T05:17:03;100567.75;;;12.11
43802;BMP280;29429;51.074;13.764;2023-10-08T05:19:37;100567.44;;;12.00
43802;BMP280;29429;51.074;13.764;2023-10-08T05:22:17;100566.66;;;12.06
43802;BMP280;29429;51.074;13.764;2023-10-08T05:24:47;100568.88;;;12.02
43802;BMP280;29429;51.074;13.764;2023-10-08T05:27:38;100585.06;;;11.94
43802;BMP280;29429;51.074;13.764;2023-10-08T05:30:17;100580.81;;;11.79
43802;BMP280;29429;51.074;13.764;2023-10-08T05:32:45;100589.91;;;11.63
